Ana Sayfa
METAR-TAF:

METAR-TAF

Havaalanları :

Lubbock, Teksas, Amerika Birleşik Devletleri

Enlem: 33-40-03N, Boylam: 101-49-17W, yükseklik: 1000 m

Güncel hava durumu gözlemi

Rapor saat 05:53 UTC de 55 dakika önce yapıldı.
Rüzgar kuzeybatıdan 17 kt
Sıcaklık 8°C
Nem 61%
Basınç 1012 hPa
Görüş mesafesi: 16.1 km
Açık gökyüzü

METAR: KLBB 240553Z 31017KT 10SM CLR 08/01 A2987 RMK AO2 PK WND 30027/0536 SLP100 60000 T00830011 10172 20083 402110083 53016

Saat: 00:48 (06:48 UTC)

Tahmin

Rapor saat 05:20 UTC de 1 saat ve 28 dakika önce yapıldı.
Ayın 24'si saat 06 UTC'den ayın 25'si saat 06 UTC'ye kadar geçerli Tahmin
Rüzgar batı/güneybatıdan 15 kt
Görüş mesafesi: 10 km
Açık gökyüzü
Ayın 24'si saat 1700 UTC'den
Rüzgar kuzeybatıdan 15 kt
Görüş mesafesi: 10 km
25000 ft yükseklikte az bulutlu

TAF: KLBB 240520Z 2406/2506 25015KT P6SM SKC FM241700 32015KT P6SM FEW250

4.000'den fazla havaalanı için hava durumu gözlemleri ve tahminleri (METAR ve TAF raporları).

Kullanılabilir istasyonlar harita üzerinde sarı ve kırmızı noktalarla gösterilir.

İstasyonun adını görmek için fareyi noktanın üzerinde gezdirin.

Sonrasında hava gözlem ve tahminlerini görmek için tıklayın.

Haritayı değiştirmek için: yaklaştırmak için siyah artı işaretli yeşil düğmeye ve uzaklaştırmak için de eksi işaretli düğmeye hızla tıklayın; bitişik haritalar için yeşil okları kullanın.


METAR-TAF: